createdAt,value
2023-01-20T00:01:15.300Z,42.00
2023-01-20T00:03:42.744Z,41.90
2023-01-20T00:06:09.981Z,42.00
2023-01-20T00:08:36.996Z,42.00
2023-01-20T00:11:05.655Z,41.90
2023-01-20T00:13:32.992Z,41.90
2023-01-20T00:16:02.448Z,41.90
2023-01-20T00:18:30.250Z,41.90
2023-01-20T00:20:57.221Z,41.90
2023-01-20T00:23:23.979Z,41.90
2023-01-20T00:25:50.654Z,41.90
2023-01-20T00:28:17.545Z,41.80
2023-01-20T00:30:44.469Z,41.80
2023-01-20T00:33:11.143Z,41.80
2023-01-20T00:35:45.110Z,41.90
2023-01-20T00:38:11.945Z,41.80
2023-01-20T00:40:38.652Z,41.80
2023-01-20T00:43:05.437Z,41.80
2023-01-20T00:45:32.150Z,41.80
2023-01-20T00:47:58.857Z,41.80
2023-01-20T00:50:25.729Z,41.80
2023-01-20T00:52:52.440Z,41.80
2023-01-20T00:55:19.099Z,41.80
2023-01-20T00:57:45.996Z,41.80
2023-01-20T01:00:13.108Z,41.80
2023-01-20T01:02:40.156Z,41.80
2023-01-20T01:05:07.123Z,41.80
2023-01-20T01:07:33.882Z,41.80
2023-01-20T01:10:00.692Z,41.80
2023-01-20T01:12:27.675Z,41.80
2023-01-20T01:14:54.348Z,41.80
2023-01-20T01:17:23.646Z,41.80
2023-01-20T01:19:53.237Z,41.80
2023-01-20T01:22:21.168Z,41.80
2023-01-20T01:24:47.987Z,41.80
2023-01-20T01:27:15.335Z,41.80
2023-01-20T01:29:42.401Z,41.70
2023-01-20T01:32:09.289Z,41.70
2023-01-20T01:34:36.054Z,41.80
2023-01-20T01:37:02.967Z,41.80
2023-01-20T01:39:29.790Z,41.90
2023-01-20T01:41:56.531Z,42.00
2023-01-20T01:44:26.994Z,42.60
2023-01-20T01:46:54.453Z,42.50
2023-01-20T01:49:26.395Z,43.30
2023-01-20T01:52:02.861Z,43.20
2023-01-20T01:54:35.809Z,43.50
2023-01-20T01:57:02.967Z,43.60
2023-01-20T01:59:30.053Z,43.80
2023-01-20T02:01:57.335Z,44.30
2023-01-20T02:04:26.856Z,44.10
2023-01-20T02:07:10.523Z,44.40
2023-01-20T02:09:38.096Z,44.70
2023-01-20T02:12:09.595Z,44.60
2023-01-20T02:14:41.300Z,44.20
2023-01-20T02:17:14.720Z,44.50
2023-01-20T02:20:09.615Z,44.40
2023-01-20T02:23:02.959Z,44.40
2023-01-20T02:26:16.695Z,44.50
2023-01-20T02:29:01.940Z,44.50
2023-01-20T02:31:55.286Z,44.60
2023-01-20T02:34:53.411Z,44.60
2023-01-20T02:37:25.250Z,44.70
2023-01-20T02:40:12.079Z,44.70
2023-01-20T02:42:45.389Z,44.70
2023-01-20T02:45:15.191Z,44.70
2023-01-20T02:47:51.221Z,44.70
2023-01-20T02:50:25.885Z,44.70
2023-01-20T02:52:56.603Z,45.00
2023-01-20T02:55:41.773Z,44.80
2023-01-20T02:58:18.788Z,44.70
2023-01-20T03:00:53.615Z,44.70
2023-01-20T03:03:28.457Z,45.00
2023-01-20T03:05:58.739Z,44.70
2023-01-20T03:08:29.452Z,44.70
2023-01-20T03:11:03.777Z,45.10
2023-01-20T03:13:39.213Z,44.90
2023-01-20T03:16:12.455Z,44.70
2023-01-20T03:18:40.116Z,44.80
2023-01-20T03:21:08.827Z,44.70
2023-01-20T03:23:44.009Z,44.70
2023-01-20T03:26:13.753Z,44.70
2023-01-20T03:28:44.905Z,44.80
2023-01-20T03:31:25.288Z,44.70
2023-01-20T03:33:54.790Z,45.10
2023-01-20T03:36:24.798Z,44.70
2023-01-20T03:38:52.931Z,45.20
2023-01-20T03:41:39.477Z,44.70
2023-01-20T03:44:14.091Z,44.80
2023-01-20T03:47:00.105Z,44.70
2023-01-20T03:49:36.790Z,44.70
2023-01-20T03:52:15.770Z,44.90
2023-01-20T03:54:54.562Z,45.10
2023-01-20T03:57:29.208Z,45.10
2023-01-20T03:59:57.976Z,45.20
2023-01-20T04:02:27.906Z,44.90
2023-01-20T04:04:56.979Z,44.70
2023-01-20T04:07:26.262Z,45.00
2023-01-20T04:09:58.151Z,45.20
2023-01-20T04:12:25.054Z,44.80
2023-01-20T04:14:51.816Z,44.80
2023-01-20T04:17:18.942Z,45.10
2023-01-20T04:19:45.796Z,44.90
2023-01-20T04:22:30.028Z,45.00
2023-01-20T04:25:08.885Z,44.80
2023-01-20T04:27:35.734Z,44.80
2023-01-20T04:30:02.535Z,44.80
2023-01-20T04:32:29.290Z,44.80
2023-01-20T04:34:56.013Z,45.10
2023-01-20T04:37:22.767Z,45.00
2023-01-20T04:39:49.650Z,45.10
2023-01-20T04:42:16.441Z,44.80
2023-01-20T04:44:43.271Z,45.40
2023-01-20T04:47:10.012Z,45.30
2023-01-20T04:49:36.947Z,44.90
2023-01-20T04:52:03.900Z,44.90
2023-01-20T04:54:30.676Z,44.80
2023-01-20T04:56:57.415Z,44.80
2023-01-20T04:59:24.278Z,45.30
2023-01-20T05:01:51.210Z,44.80
2023-01-20T05:04:18.017Z,44.90
2023-01-20T05:06:44.934Z,44.80
2023-01-20T05:09:15.112Z,44.80
2023-01-20T05:11:42.722Z,44.90
2023-01-20T05:14:10.722Z,44.90
2023-01-20T05:16:37.473Z,45.20
2023-01-20T05:19:04.293Z,44.90
2023-01-20T05:21:31.382Z,45.10
2023-01-20T05:23:58.079Z,45.30
2023-01-20T05:26:27.148Z,45.00
2023-01-20T05:28:54.730Z,44.80
2023-01-20T05:31:21.817Z,44.80
2023-01-20T05:33:48.614Z,44.90
2023-01-20T05:36:15.369Z,45.00
2023-01-20T05:38:42.177Z,45.00
2023-01-20T05:41:09.946Z,44.90
2023-01-20T05:43:37.137Z,45.00
2023-01-20T05:46:04.687Z,45.10
2023-01-20T05:48:31.948Z,44.90
2023-01-20T05:50:58.764Z,45.30
2023-01-20T05:53:25.660Z,45.10
2023-01-20T05:56:02.733Z,44.90
2023-01-20T05:58:30.218Z,44.90
2023-01-20T06:01:05.615Z,44.90
2023-01-20T06:03:32.511Z,45.30
2023-01-20T06:06:04.631Z,45.20
2023-01-20T06:08:31.764Z,45.60
2023-01-20T06:10:58.672Z,44.90
2023-01-20T06:13:25.982Z,45.40
2023-01-20T06:15:53.716Z,45.20
2023-01-20T06:18:21.769Z,45.30
2023-01-20T06:20:48.667Z,44.90
2023-01-20T06:23:15.981Z,45.40
2023-01-20T06:25:42.719Z,45.00
2023-01-20T06:28:09.546Z,45.00
2023-01-20T06:30:36.502Z,45.00
2023-01-20T06:33:04.226Z,45.60
2023-01-20T06:35:31.008Z,45.10
2023-01-20T06:37:58.713Z,45.20
2023-01-20T06:40:25.514Z,45.80
2023-01-20T06:42:52.231Z,45.20
2023-01-20T06:45:18.896Z,45.30
2023-01-20T06:47:49.134Z,45.20
2023-01-20T06:50:16.669Z,45.20
2023-01-20T06:52:43.456Z,45.10
2023-01-20T06:55:10.284Z,45.20
2023-01-20T06:57:37.016Z,45.10
2023-01-20T07:00:04.288Z,45.20
2023-01-20T07:02:31.159Z,45.20
2023-01-20T07:05:00.949Z,45.20
2023-01-20T07:07:27.761Z,45.20
2023-01-20T07:09:55.153Z,45.10
2023-01-20T07:12:24.297Z,45.20
2023-01-20T07:14:51.007Z,45.10
2023-01-20T07:17:17.749Z,45.20
2023-01-20T07:19:44.545Z,45.20
2023-01-20T07:22:11.233Z,45.40
2023-01-20T07:24:37.972Z,45.20
2023-01-20T07:27:05.451Z,45.20
2023-01-20T07:29:32.231Z,45.20
2023-01-20T07:31:59.306Z,45.30
2023-01-20T07:34:26.307Z,45.50
2023-01-20T07:36:53.377Z,46.00
2023-01-20T07:39:20.284Z,46.40
2023-01-20T07:41:50.612Z,46.70
2023-01-20T07:44:17.588Z,46.80
2023-01-20T07:46:44.560Z,46.90
2023-01-20T07:49:12.447Z,46.90
2023-01-20T07:51:39.883Z,46.90
2023-01-20T07:54:06.961Z,46.90
2023-01-20T07:56:33.886Z,47.00
2023-01-20T07:59:00.786Z,47.00
2023-01-20T08:01:30.031Z,47.00
2023-01-20T08:04:03.307Z,47.00
2023-01-20T08:06:30.461Z,47.00
2023-01-20T08:09:01.301Z,47.40
2023-01-20T08:11:28.561Z,46.90
2023-01-20T08:13:55.630Z,46.80
2023-01-20T08:16:22.476Z,46.70
2023-01-20T08:18:54.613Z,46.80
2023-01-20T08:21:24.209Z,46.80
2023-01-20T08:23:51.836Z,46.80
2023-01-20T08:26:19.377Z,46.80
2023-01-20T08:28:47.150Z,46.80
2023-01-20T08:31:16.957Z,46.70
2023-01-20T08:33:44.783Z,46.60
2023-01-20T08:36:25.361Z,46.80
2023-01-20T08:38:52.226Z,46.70
2023-01-20T08:41:26.156Z,46.60
2023-01-20T08:43:53.091Z,46.70
2023-01-20T08:46:21.178Z,46.70
2023-01-20T08:48:51.710Z,46.70
2023-01-20T08:51:26.538Z,46.60
2023-01-20T08:53:53.468Z,46.50
2023-01-20T08:56:21.010Z,46.60
2023-01-20T08:58:48.319Z,46.50
2023-01-20T09:01:21.483Z,46.60
2023-01-20T09:04:04.387Z,46.40
2023-01-20T09:06:43.798Z,46.70
2023-01-20T09:09:11.005Z,46.40
2023-01-20T09:11:39.411Z,46.50
2023-01-20T09:14:06.533Z,47.10
2023-01-20T09:16:35.732Z,46.40
2023-01-20T09:19:10.234Z,46.30
2023-01-20T09:21:37.148Z,46.70
2023-01-20T09:24:04.354Z,46.30
2023-01-20T09:26:38.351Z,46.30
2023-01-20T09:29:10.508Z,46.40
2023-01-20T09:31:40.238Z,46.30
2023-01-20T09:34:10.154Z,46.30
2023-01-20T09:36:37.085Z,46.30
2023-01-20T09:39:22.333Z,46.50
2023-01-20T09:42:08.272Z,46.20
2023-01-20T09:45:26.085Z,46.30
2023-01-20T09:48:14.056Z,46.40
2023-01-20T09:51:17.506Z,46.50
2023-01-20T09:54:02.951Z,46.40
2023-01-20T09:56:31.057Z,46.50
2023-01-20T09:59:06.571Z,46.40
2023-01-20T10:01:38.551Z,46.30
2023-01-20T10:04:20.180Z,46.40
2023-01-20T10:06:51.786Z,46.30
2023-01-20T10:09:38.371Z,46.20
2023-01-20T10:12:14.721Z,46.20
2023-01-20T10:14:47.540Z,46.10
2023-01-20T10:17:22.085Z,46.20
2023-01-20T10:20:15.783Z,46.20
2023-01-20T10:22:49.894Z,46.20
2023-01-20T10:25:24.700Z,46.10
2023-01-20T10:27:58.489Z,46.20
2023-01-20T10:30:31.095Z,46.30
2023-01-20T10:33:20.852Z,46.30
2023-01-20T10:35:54.697Z,46.20
2023-01-20T10:38:34.799Z,46.20
2023-01-20T10:41:22.250Z,46.20
2023-01-20T10:43:49.064Z,46.10
2023-01-20T10:46:35.895Z,46.10
2023-01-20T10:49:32.338Z,46.10
2023-01-20T10:52:36.884Z,46.10
2023-01-20T10:55:36.095Z,46.00
2023-01-20T10:58:14.673Z,46.70
2023-01-20T11:00:42.361Z,46.00
2023-01-20T11:03:15.679Z,46.00
2023-01-20T11:05:43.081Z,46.00
2023-01-20T11:08:22.295Z,46.00
2023-01-20T11:10:54.019Z,45.90
2023-01-20T11:13:20.836Z,45.90
2023-01-20T11:15:54.760Z,45.90
2023-01-20T11:18:27.958Z,45.90
2023-01-20T11:21:00.002Z,45.90
2023-01-20T11:23:38.616Z,45.90
2023-01-20T11:26:30.290Z,45.80
2023-01-20T11:29:01.274Z,45.80
2023-01-20T11:32:03.015Z,45.80
2023-01-20T11:34:34.772Z,45.80
2023-01-20T11:37:04.576Z,45.80
2023-01-20T11:39:35.461Z,45.80
2023-01-20T11:42:21.217Z,45.70
2023-01-20T11:44:49.330Z,45.70
2023-01-20T11:47:34.754Z,45.70
2023-01-20T11:50:04.516Z,45.70
2023-01-20T11:52:33.037Z,45.70
2023-01-20T11:55:20.337Z,45.80
2023-01-20T11:58:02.810Z,45.80
2023-01-20T12:00:37.283Z,45.80
2023-01-20T12:03:18.577Z,45.80
2023-01-20T12:06:02.981Z,45.80
2023-01-20T12:09:03.881Z,45.80
2023-01-20T12:12:02.187Z,45.80
2023-01-20T12:14:39.368Z,45.90
2023-01-20T12:17:27.804Z,45.90
2023-01-20T12:20:10.211Z,46.60
2023-01-20T12:29:13.549Z,46.00
2023-01-20T12:31:40.537Z,46.80
2023-01-20T12:34:14.653Z,46.10
2023-01-20T12:36:56.824Z,46.30
2023-01-20T12:39:51.776Z,46.30
2023-01-20T12:42:27.666Z,46.30
2023-01-20T12:45:10.954Z,46.40
2023-01-20T12:48:22.233Z,46.50
2023-01-20T12:51:16.478Z,46.70
2023-01-20T12:54:11.115Z,46.90
2023-01-20T12:57:00.651Z,46.90
2023-01-20T12:59:47.539Z,47.00
2023-01-20T13:02:37.606Z,47.10
2023-01-20T13:05:07.541Z,47.10
2023-01-20T13:08:01.101Z,47.10
2023-01-20T13:10:50.913Z,47.10
2023-01-20T13:13:56.838Z,47.10
2023-01-20T13:16:43.140Z,47.10
2023-01-20T13:19:17.268Z,47.10
2023-01-20T13:21:44.043Z,47.10
2023-01-20T13:24:24.167Z,47.10
2023-01-20T13:26:51.651Z,47.10
2023-01-20T13:29:44.007Z,47.10
2023-01-20T13:32:36.795Z,47.10
2023-01-20T13:35:15.947Z,47.20
2023-01-20T13:37:48.381Z,47.10
2023-01-20T13:40:37.211Z,47.10
2023-01-20T13:43:28.122Z,47.10
2023-01-20T13:46:03.851Z,47.20
2023-01-20T13:48:32.755Z,47.10
2023-01-20T13:51:21.273Z,47.30
2023-01-20T13:53:47.995Z,47.10
2023-01-20T13:56:32.908Z,47.50
2023-01-20T13:58:59.753Z,47.20
2023-01-20T14:01:27.848Z,47.20
2023-01-20T14:04:21.868Z,47.80
2023-01-20T14:06:51.439Z,47.60
2023-01-20T14:09:27.090Z,47.10
2023-01-20T14:11:57.558Z,47.90
2023-01-20T14:14:27.028Z,47.60
2023-01-20T14:17:03.501Z,47.50
2023-01-20T14:19:32.614Z,47.20
2023-01-20T14:22:02.694Z,47.10
2023-01-20T14:24:36.564Z,47.10
2023-01-20T14:27:15.385Z,47.40
2023-01-20T14:29:42.420Z,47.80
2023-01-20T14:32:22.171Z,47.40
2023-01-20T14:34:49.876Z,47.30
2023-01-20T14:37:29.204Z,47.60
2023-01-20T14:39:58.775Z,47.60
2023-01-20T14:42:27.759Z,47.10
2023-01-20T14:44:59.052Z,47.30
2023-01-20T14:47:27.280Z,47.00
2023-01-20T14:49:54.987Z,47.60
2023-01-20T14:52:27.488Z,47.20
2023-01-20T14:54:56.353Z,47.10
2023-01-20T14:57:26.988Z,47.40
2023-01-20T15:00:19.421Z,47.00
2023-01-20T15:03:10.308Z,47.00
2023-01-20T15:05:40.927Z,47.10
2023-01-20T15:08:53.405Z,47.60
2023-01-20T15:11:31.186Z,47.80
2023-01-20T15:14:01.289Z,47.20
2023-01-20T15:16:30.500Z,47.80
2023-01-20T15:19:18.472Z,47.30
2023-01-20T15:21:51.719Z,47.70
2023-01-20T15:24:30.907Z,47.20
2023-01-20T15:27:08.881Z,47.40
2023-01-20T15:29:36.499Z,47.40
2023-01-20T15:32:11.215Z,47.40
2023-01-20T15:34:38.091Z,47.40
2023-01-20T15:37:16.988Z,47.40
2023-01-20T15:39:44.121Z,47.40
2023-01-20T15:42:15.311Z,48.00
2023-01-20T15:44:42.153Z,47.70
2023-01-20T15:47:30.746Z,47.40
2023-01-20T15:49:58.084Z,47.60
2023-01-20T15:52:24.981Z,47.40
2023-01-20T15:54:51.880Z,47.70
2023-01-20T15:57:20.829Z,47.70
2023-01-20T15:59:49.572Z,47.40
2023-01-20T16:02:21.949Z,47.50
2023-01-20T16:04:51.502Z,47.60
2023-01-20T16:07:20.207Z,48.20
2023-01-20T16:09:49.281Z,48.70
2023-01-20T16:12:19.041Z,49.10
2023-01-20T16:14:48.568Z,48.90
2023-01-20T16:17:18.300Z,48.80
2023-01-20T16:19:45.309Z,48.80
2023-01-20T16:22:13.453Z,48.90
2023-01-20T16:24:41.161Z,48.90
2023-01-20T16:27:22.463Z,48.70
2023-01-20T16:29:49.834Z,48.60
2023-01-20T16:32:18.735Z,48.70
2023-01-20T16:34:49.629Z,48.90
2023-01-20T16:37:16.298Z,48.60
2023-01-20T16:39:43.133Z,48.30
2023-01-20T16:42:14.597Z,48.20
2023-01-20T16:44:41.385Z,48.60
2023-01-20T16:47:10.511Z,48.80
2023-01-20T16:49:38.515Z,48.30
2023-01-20T16:52:05.332Z,48.10
2023-01-20T16:54:32.033Z,48.70
2023-01-20T16:56:58.796Z,48.80
2023-01-20T16:59:25.917Z,48.30
2023-01-20T17:01:52.845Z,48.10
2023-01-20T17:04:20.621Z,48.20
2023-01-20T17:06:47.334Z,48.40
2023-01-20T17:09:14.355Z,47.80
2023-01-20T17:11:41.275Z,47.80
2023-01-20T17:14:10.082Z,48.40
2023-01-20T17:16:38.200Z,48.30
2023-01-20T17:19:05.672Z,48.00
2023-01-20T17:21:34.297Z,47.70
2023-01-20T17:24:03.585Z,48.10
2023-01-20T17:26:30.785Z,47.80
2023-01-20T17:29:02.239Z,48.00
2023-01-20T17:31:31.716Z,47.50
2023-01-20T17:33:58.811Z,47.70
2023-01-20T17:36:25.509Z,48.20
2023-01-20T17:38:52.236Z,48.20
2023-01-20T17:41:19.039Z,47.70
2023-01-20T17:43:48.208Z,47.60
2023-01-20T17:46:21.231Z,48.00
2023-01-20T17:48:48.631Z,47.50
2023-01-20T17:51:21.533Z,47.70
2023-01-20T17:53:48.933Z,47.40
2023-01-20T17:56:19.646Z,47.90
2023-01-20T17:58:46.744Z,47.80
2023-01-20T18:01:28.622Z,48.00
2023-01-20T18:03:59.176Z,47.60
2023-01-20T18:06:34.729Z,47.50
2023-01-20T18:09:01.997Z,47.40
2023-01-20T18:11:32.073Z,47.80
2023-01-20T18:14:02.631Z,47.70
2023-01-20T18:16:34.384Z,47.60
2023-01-20T18:19:04.011Z,47.90
2023-01-20T18:21:36.334Z,47.70
2023-01-20T18:24:07.200Z,47.10
2023-01-20T18:26:35.512Z,47.10
2023-01-20T18:29:06.081Z,47.60
2023-01-20T18:31:36.101Z,47.40
2023-01-20T18:34:06.201Z,47.40
2023-01-20T18:36:38.683Z,47.10
2023-01-20T18:39:06.722Z,47.50
2023-01-20T18:41:37.435Z,47.00
2023-01-20T18:44:07.179Z,47.70
2023-01-20T18:46:34.605Z,47.70
2023-01-20T18:49:05.078Z,47.00
2023-01-20T18:51:32.087Z,47.20
2023-01-20T18:54:01.586Z,47.60
2023-01-20T18:56:29.844Z,47.00
2023-01-20T18:58:56.728Z,47.40
2023-01-20T19:01:27.730Z,47.40
2023-01-20T19:03:55.503Z,46.90
2023-01-20T19:06:25.101Z,47.00
2023-01-20T19:08:52.595Z,47.10
2023-01-20T19:11:25.093Z,47.10
2023-01-20T19:13:53.493Z,47.30
2023-01-20T19:16:25.971Z,47.60
2023-01-20T19:18:57.814Z,47.40
2023-01-20T19:21:25.760Z,47.40
2023-01-20T19:23:58.427Z,47.50
2023-01-20T19:26:27.577Z,47.60
2023-01-20T19:29:02.524Z,47.60
2023-01-20T19:31:31.742Z,47.60
2023-01-20T19:33:58.965Z,47.70
2023-01-20T19:36:26.168Z,47.70
2023-01-20T19:38:52.926Z,48.10
2023-01-20T19:41:27.616Z,47.70
2023-01-20T19:43:57.087Z,47.90
2023-01-20T19:46:28.641Z,47.80
2023-01-20T19:48:57.284Z,47.70
2023-01-20T19:51:32.904Z,47.80
2023-01-20T19:54:01.026Z,47.80
2023-01-20T19:56:35.496Z,47.80
2023-01-20T19:59:05.918Z,48.00
2023-01-20T20:01:35.532Z,48.20
2023-01-20T20:04:07.363Z,48.20
2023-01-20T20:06:39.538Z,48.00
2023-01-20T20:09:10.230Z,47.70
2023-01-20T20:11:37.716Z,48.00
2023-01-20T20:14:06.195Z,47.90
2023-01-20T20:16:35.791Z,47.70
2023-01-20T20:19:03.257Z,48.10
2023-01-20T20:21:30.238Z,47.70
2023-01-20T20:23:59.063Z,47.70
2023-01-20T20:26:28.829Z,47.70
2023-01-20T20:28:56.027Z,47.70
2023-01-20T20:31:28.791Z,47.70
2023-01-20T20:33:57.037Z,47.70
2023-01-20T20:36:24.200Z,47.70
2023-01-20T20:38:51.507Z,47.80
2023-01-20T20:41:18.706Z,47.80
2023-01-20T20:43:45.939Z,47.60
2023-01-20T20:46:18.267Z,47.60
2023-01-20T20:48:45.167Z,48.10
2023-01-20T20:51:15.204Z,47.50
2023-01-20T20:53:45.070Z,47.60
2023-01-20T20:56:16.377Z,47.90
2023-01-20T20:59:00.013Z,47.80
2023-01-20T21:01:29.858Z,47.50
2023-01-20T21:03:59.473Z,47.50
2023-01-20T21:06:29.425Z,47.40
2023-01-20T21:08:56.457Z,47.40
2023-01-20T21:11:24.820Z,47.50
2023-01-20T21:13:52.518Z,47.50
2023-01-20T21:16:23.472Z,47.30
2023-01-20T21:18:52.206Z,47.30
2023-01-20T21:21:19.616Z,47.30
2023-01-20T21:23:51.771Z,47.20
2023-01-20T21:26:19.188Z,47.30
2023-01-20T21:28:48.970Z,47.10
2023-01-20T21:31:20.653Z,47.50
2023-01-20T21:33:51.162Z,47.10
2023-01-20T21:36:17.904Z,47.20
2023-01-20T21:38:46.741Z,47.00
2023-01-20T21:41:14.980Z,47.50
2023-01-20T21:44:02.164Z,46.90
2023-01-20T21:46:40.133Z,46.80
2023-01-20T21:49:26.989Z,46.80
2023-01-20T21:52:13.054Z,47.10
2023-01-20T21:54:41.081Z,46.70
2023-01-20T21:57:08.194Z,46.70
2023-01-20T21:59:34.921Z,46.80
2023-01-20T22:02:01.713Z,46.70
2023-01-20T22:04:28.521Z,46.80
2023-01-20T22:06:55.191Z,46.60
2023-01-20T22:09:21.972Z,46.80
2023-01-20T22:11:49.704Z,46.50
2023-01-20T22:14:16.508Z,46.50
2023-01-20T22:16:43.425Z,46.40
2023-01-20T22:19:13.432Z,46.70
2023-01-20T22:21:40.488Z,46.50
2023-01-20T22:24:07.855Z,46.30
2023-01-20T22:26:34.946Z,46.30
2023-01-20T22:29:01.919Z,46.70
2023-01-20T22:31:30.041Z,46.90
2023-01-20T22:33:58.451Z,46.20
2023-01-20T22:36:26.932Z,46.20
2023-01-20T22:38:53.828Z,46.20
2023-01-20T22:41:21.282Z,46.10
2023-01-20T22:43:48.388Z,46.60
2023-01-20T22:46:17.469Z,46.60
2023-01-20T22:48:44.871Z,46.10
2023-01-20T22:51:14.734Z,46.20
2023-01-20T22:53:41.809Z,46.30
2023-01-20T22:56:12.327Z,46.00
2023-01-20T22:58:39.417Z,46.10
2023-01-20T23:01:12.766Z,46.10
2023-01-20T23:03:39.830Z,46.60
2023-01-20T23:06:06.766Z,46.00
2023-01-20T23:08:33.641Z,45.90
2023-01-20T23:11:05.974Z,46.20
2023-01-20T23:13:35.104Z,45.90
2023-01-20T23:16:04.616Z,45.90
2023-01-20T23:18:32.371Z,46.30
2023-01-20T23:21:01.485Z,45.90
2023-01-20T23:23:29.160Z,45.80
2023-01-20T23:26:10.069Z,46.20
2023-01-20T23:28:36.780Z,45.70
2023-01-20T23:31:05.813Z,45.70
2023-01-20T23:33:33.029Z,45.70
2023-01-20T23:36:04.674Z,45.70
2023-01-20T23:38:31.439Z,45.70
2023-01-20T23:40:58.392Z,45.60
2023-01-20T23:43:25.155Z,45.60
2023-01-20T23:45:51.960Z,45.80
2023-01-20T23:48:20.124Z,45.60
2023-01-20T23:50:47.018Z,45.60
2023-01-20T23:53:13.705Z,45.60
2023-01-20T23:55:40.496Z,46.20
2023-01-20T23:58:07.206Z,46.10
